Time;durP1;ratioP1;P1;durP2;ratioP2;P2;SDS_P1;SDS_P2;PMS_P1;PMS_P2;Temp;Humidity;BMP_temperature;BMP_pressure;BME280_temperature;BME280_humidity;BME280_pressure;Samples;Min_cycle;Max_cycle;Signal;HPM_P1;HPM_P2
2020/12/07 07:51:05;;;;;;;98.93;53.50;;;2.20;99.90;;;;;;5091176;28;20583;-79
2020/12/07 07:54:08;;;;;;;106.03;53.47;;;1.90;99.90;;;;;;5091256;28;20167;-77
2020/12/07 08:11:55;;;;;;;113.13;52.00;;;2.20;99.90;;;;;;5090484;28;20254;-79
2020/12/07 08:16:21;;;;;;;98.17;46.33;;;2.40;99.90;;;;;;5090194;28;20168;-81
2020/12/07 08:18:48;;;;;;;99.47;49.70;;;2.30;99.90;;;;;;5089704;28;20176;-79
2020/12/07 08:21:34;;;;;;;97.53;49.43;;;2.40;99.90;;;;;;5088927;28;20219;-80
2020/12/07 08:24:09;;;;;;;99.57;47.83;;;2.60;99.90;;;;;;5089788;28;20187;-79
2020/12/07 08:26:42;;;;;;;90.40;47.87;;;2.70;99.90;;;;;;5089599;28;20663;-78
2020/12/07 08:29:07;;;;;;;96.53;47.20;;;2.60;99.90;;;;;;5089364;28;20278;-78
2020/12/07 08:31:38;;;;;;;88.00;46.67;;;2.60;99.90;;;;;;5090446;28;20681;-79
2020/12/07 08:34:14;;;;;;;87.50;45.90;;;2.60;99.90;;;;;;5087201;28;20222;-78
2020/12/07 08:36:46;;;;;;;84.80;46.17;;;2.60;99.90;;;;;;5078475;28;20234;-77
2020/12/07 08:39:12;;;;;;;93.00;48.40;;;2.60;99.90;;;;;;5076484;28;20248;-78
2020/12/07 08:41:38;;;;;;;89.30;47.00;;;2.60;99.90;;;;;;5081299;28;20939;-77
2020/12/07 08:44:07;;;;;;;88.77;44.87;;;2.60;99.90;;;;;;5085068;28;20167;-78
2020/12/07 08:46:35;;;;;;;83.83;46.37;;;2.70;99.90;;;;;;5091150;28;20191;-76
2020/12/07 08:49:02;;;;;;;86.87;44.33;;;2.70;99.90;;;;;;5091317;28;20224;-77
2020/12/07 08:51:31;;;;;;;84.53;44.23;;;2.60;99.90;;;;;;5084075;28;20539;-79
2020/12/07 08:53:56;;;;;;;75.80;41.93;;;2.60;99.90;;;;;;5068524;28;20173;-79
2020/12/07 08:56:22;;;;;;;72.97;40.70;;;2.60;99.90;;;;;;5069530;28;20159;-79
2020/12/07 08:58:47;;;;;;;83.10;40.97;;;2.60;99.90;;;;;;5069367;28;20956;-80
2020/12/07 09:01:13;;;;;;;78.73;42.57;;;2.50;99.90;;;;;;5060943;28;20234;-80
2020/12/07 09:03:45;;;;;;;84.70;42.03;;;2.60;99.90;;;;;;5055859;28;20215;-79
2020/12/07 09:06:13;;;;;;;83.60;44.07;;;2.60;99.90;;;;;;5054471;28;20208;-80
2020/12/07 09:08:45;;;;;;;83.60;41.27;;;2.80;99.90;;;;;;5054891;28;20212;-79
2020/12/07 09:11:13;;;;;;;81.37;42.43;;;2.60;99.90;;;;;;5066899;28;20189;-78
2020/12/07 09:13:39;;;;;;;81.77;39.47;;;2.50;99.90;;;;;;5056575;28;20528;-79
2020/12/07 09:16:06;;;;;;;88.37;45.03;;;2.50;99.90;;;;;;5054883;28;20181;-79
2020/12/07 09:18:32;;;;;;;83.83;43.63;;;2.60;99.90;;;;;;5056260;28;20161;-79
2020/12/07 09:20:59;;;;;;;86.87;42.93;;;2.60;99.90;;;;;;5058252;28;20169;-79
2020/12/07 09:23:27;;;;;;;83.47;43.60;;;2.60;99.90;;;;;;5057176;28;20690;-79
2020/12/07 09:25:53;;;;;;;89.57;44.50;;;2.60;99.90;;;;;;5058791;28;20165;-78
2020/12/07 09:28:19;;;;;;;90.70;44.93;;;2.60;99.90;;;;;;5056530;28;20226;-80
2020/12/07 09:30:45;;;;;;;77.07;41.53;;;2.70;99.90;;;;;;5055822;28;20564;-78
2020/12/07 09:33:12;;;;;;;81.57;43.13;;;2.60;99.90;;;;;;5056877;28;20187;-78
2020/12/07 09:35:38;;;;;;;83.73;43.43;;;2.60;99.90;;;;;;5077706;28;20187;-78
2020/12/07 09:38:04;;;;;;;86.33;45.37;;;2.70;99.90;;;;;;5068042;28;20253;-78
2020/12/07 09:40:30;;;;;;;84.27;46.97;;;2.80;99.90;;;;;;5060340;28;20193;-79
2020/12/07 09:42:55;;;;;;;86.50;47.47;;;2.70;99.90;;;;;;5057641;28;20648;-79
2020/12/07 09:45:21;;;;;;;90.53;45.97;;;2.70;99.90;;;;;;5057642;28;20692;-79
2020/12/07 09:47:47;;;;;;;88.83;45.57;;;2.70;99.90;;;;;;5055725;28;20255;-79
2020/12/07 09:50:13;;;;;;;91.57;47.17;;;2.60;99.90;;;;;;5053812;28;20263;-79
2020/12/07 09:52:39;;;;;;;89.97;48.30;;;2.60;99.90;;;;;;5057578;28;20208;-79
2020/12/07 09:55:05;;;;;;;96.93;46.87;;;2.60;99.90;;;;;;5057857;28;20191;-79
2020/12/07 09:57:31;;;;;;;96.77;48.60;;;2.60;99.90;;;;;;5070793;28;20753;-79
2020/12/07 09:59:56;;;;;;;96.93;51.07;;;2.70;99.90;;;;;;5064913;28;20169;-79
2020/12/07 10:02:23;;;;;;;91.10;48.03;;;2.70;99.90;;;;;;5056494;28;20177;-79
2020/12/07 10:04:50;;;;;;;97.53;50.90;;;2.70;99.90;;;;;;5055869;28;20176;-79
2020/12/07 10:07:15;;;;;;;100.63;51.60;;;2.60;99.90;;;;;;5056887;28;20179;-79
2020/12/07 10:09:41;;;;;;;93.97;51.13;;;2.60;99.90;;;;;;5055123;28;20760;-79
2020/12/07 10:12:07;;;;;;;100.53;52.57;;;2.60;99.90;;;;;;5055373;28;20157;-78
2020/12/07 10:14:34;;;;;;;100.43;53.17;;;2.70;99.90;;;;;;5056830;28;20542;-79
2020/12/07 10:17:00;;;;;;;99.00;52.03;;;2.70;99.90;;;;;;5080132;28;20200;-79
2020/12/07 10:19:26;;;;;;;105.70;52.17;;;2.70;99.90;;;;;;5057921;28;20177;-78
2020/12/07 10:21:53;;;;;;;100.03;53.37;;;2.60;99.90;;;;;;5061618;28;20180;-78
2020/12/07 10:24:20;;;;;;;97.73;52.97;;;2.60;99.90;;;;;;5060283;28;20181;-78
2020/12/07 10:26:45;;;;;;;95.00;51.97;;;2.70;99.90;;;;;;5054385;28;20165;-80
2020/12/07 10:29:11;;;;;;;98.53;51.83;;;2.80;99.90;;;;;;5056646;28;20251;-81
2020/12/07 10:31:37;;;;;;;104.23;53.13;;;2.90;99.90;;;;;;5054716;28;20169;-81
2020/12/07 10:34:02;;;;;;;93.53;49.17;;;3.00;99.90;;;;;;5062135;28;20541;-82
2020/12/07 10:36:28;;;;;;;93.47;51.80;;;2.90;99.90;;;;;;5074912;28;20172;-81
2020/12/07 10:38:54;;;;;;;93.27;49.13;;;2.80;99.90;;;;;;5087648;28;20575;-80
2020/12/07 10:41:26;;;;;;;91.83;51.17;;;2.90;99.90;;;;;;5076367;28;20222;-80
2020/12/07 10:43:52;;;;;;;83.90;46.93;;;2.80;99.90;;;;;;5060081;28;20191;-82
2020/12/07 10:46:18;;;;;;;95.97;50.20;;;2.90;99.90;;;;;;5075980;28;20168;-81
2020/12/07 10:48:43;;;;;;;102.33;51.73;;;2.90;99.90;;;;;;5076283;28;20243;-81
2020/12/07 10:51:13;;;;;;;94.33;51.47;;;3.00;99.90;;;;;;5080889;28;20193;-80
2020/12/07 10:53:39;;;;;;;85.73;47.83;;;3.20;99.90;;;;;;5096345;28;20515;-83
2020/12/07 10:56:15;;;;;;;79.77;48.07;;;3.10;99.90;;;;;;5099281;28;20186;-80
2020/12/07 10:58:42;;;;;;;81.67;46.53;;;3.00;99.90;;;;;;5079816;28;20216;-82
2020/12/07 11:01:09;;;;;;;82.40;46.23;;;3.10;99.90;;;;;;5061611;28;20181;-80
2020/12/07 11:03:35;;;;;;;84.07;46.10;;;3.20;99.90;;;;;;5053667;28;20184;-79
2020/12/07 11:06:20;;;;;;;77.50;45.97;;;3.10;99.90;;;;;;5055471;28;20226;-79
2020/12/07 11:11:14;;;;;;;80.43;47.53;;;3.10;99.90;;;;;;5089316;28;20259;-82
2020/12/07 11:13:39;;;;;;;75.77;44.83;;;3.20;99.90;;;;;;5055980;28;20207;-80
2020/12/07 11:16:09;;;;;;;86.23;45.43;;;3.10;99.90;;;;;;5055287;28;20662;-78
2020/12/07 11:18:36;;;;;;;79.80;42.83;;;3.00;99.90;;;;;;5054997;28;20636;-79
2020/12/07 11:21:01;;;;;;;75.63;44.10;;;3.00;99.90;;;;;;5055669;28;20169;-79
2020/12/07 11:23:27;;;;;;;72.27;44.20;;;3.00;99.90;;;;;;5057373;28;20173;-79
2020/12/07 11:25:53;;;;;;;73.57;42.80;;;3.00;99.90;;;;;;5058884;28;20169;-78
2020/12/07 11:28:19;;;;;;;74.90;44.83;;;3.10;99.90;;;;;;5052197;28;20196;-80
2020/12/07 11:30:46;;;;;;;74.93;44.10;;;3.10;99.90;;;;;;5054573;28;20208;-81
2020/12/07 11:33:11;;;;;;;69.43;42.30;;;3.10;99.90;;;;;;5052254;28;20181;-79
2020/12/07 11:35:37;;;;;;;68.23;41.77;;;3.20;99.90;;;;;;5056098;28;20227;-80
2020/12/07 11:38:06;;;;;;;64.00;40.93;;;3.20;99.90;;;;;;5056183;28;20231;-81
2020/12/07 11:43:48;;;;;;;60.37;38.07;;;3.30;99.90;;;;;;5061872;28;20192;-82
2020/12/07 11:46:33;;;;;;;57.60;36.67;;;3.40;99.90;;;;;;5061917;28;20169;-81
2020/12/07 11:48:59;;;;;;;57.33;37.57;;;3.40;99.90;;;;;;5067361;28;20579;-79
2020/12/07 11:51:26;;;;;;;55.57;37.17;;;3.40;99.90;;;;;;5073133;28;20517;-78
2020/12/07 11:53:54;;;;;;;52.40;35.47;;;3.50;99.90;;;;;;5076220;28;20175;-81
2020/12/07 11:56:39;;;;;;;54.20;36.73;;;3.50;99.90;;;;;;5074582;28;20172;-76
2020/12/07 11:59:07;;;;;;;54.43;33.90;;;3.60;99.90;;;;;;5073978;28;20294;-79
2020/12/07 12:01:37;;;;;;;53.83;34.80;;;3.60;99.90;;;;;;5073413;28;20448;-76
2020/12/07 12:04:04;;;;;;;50.67;34.93;;;3.60;99.90;;;;;;5068455;28;20192;-77
2020/12/07 12:06:31;;;;;;;56.07;36.23;;;3.60;99.90;;;;;;5068760;28;20277;-78
2020/12/07 12:08:58;;;;;;;52.03;33.23;;;3.70;99.90;;;;;;5076056;28;20200;-77
2020/12/07 12:11:32;;;;;;;56.80;34.73;;;3.60;99.90;;;;;;5096497;28;20267;-75
2020/12/07 12:13:59;;;;;;;49.93;34.33;;;3.80;99.90;;;;;;5090923;28;20177;-76
2020/12/07 12:16:27;;;;;;;53.90;35.37;;;3.80;99.90;;;;;;5084086;28;20195;-78
2020/12/07 12:18:56;;;;;;;52.83;35.00;;;3.90;99.90;;;;;;5094028;28;20210;-78
2020/12/07 12:21:23;;;;;;;54.67;35.30;;;3.90;99.90;;;;;;5093098;28;20175;-80
2020/12/07 12:23:49;;;;;;;54.43;35.03;;;4.00;99.90;;;;;;5094844;28;20180;-77
2020/12/07 12:26:17;;;;;;;49.33;33.70;;;3.90;99.90;;;;;;5074627;28;20210;-79
2020/12/07 12:28:43;;;;;;;56.00;36.50;;;4.00;99.90;;;;;;5072444;28;20180;-77
2020/12/07 12:31:11;;;;;;;58.37;35.93;;;4.00;99.90;;;;;;5073224;28;20168;-79
2020/12/07 12:33:37;;;;;;;59.40;36.57;;;4.00;99.90;;;;;;5073915;28;20172;-79
2020/12/07 12:36:04;;;;;;;56.03;36.33;;;4.10;99.90;;;;;;5075434;28;20181;-77
2020/12/07 12:38:30;;;;;;;60.10;36.07;;;4.00;99.90;;;;;;5084002;28;20177;-82
2020/12/07 12:40:56;;;;;;;56.30;36.00;;;3.90;99.90;;;;;;5090468;28;20223;-76
2020/12/07 12:43:22;;;;;;;56.10;35.57;;;3.90;99.90;;;;;;5084380;28;20207;-77
2020/12/07 12:45:48;;;;;;;56.37;36.47;;;4.00;99.90;;;;;;5092842;28;20658;-77
2020/12/07 12:48:13;;;;;;;54.20;35.17;;;4.00;99.90;;;;;;5115247;28;20186;-77
2020/12/07 12:50:40;;;;;;;55.27;34.87;;;4.10;99.90;;;;;;5112452;28;20212;-76
2020/12/07 12:53:06;;;;;;;60.07;35.00;;;4.10;99.90;;;;;;5087828;28;20186;-74
2020/12/07 12:55:32;;;;;;;59.93;36.20;;;4.00;99.90;;;;;;5097892;28;20244;-76
2020/12/07 12:57:58;;;;;;;48.93;34.13;;;4.00;99.90;;;;;;5087206;28;20223;-78
2020/12/07 13:00:23;;;;;;;53.67;33.53;;;4.20;99.90;;;;;;5085794;28;20175;-76
2020/12/07 13:02:49;;;;;;;53.53;34.13;;;4.30;99.90;;;;;;5077573;28;20640;-77
2020/12/07 13:05:15;;;;;;;49.43;32.63;;;4.40;99.90;;;;;;5078877;28;20180;-77
2020/12/07 13:07:42;;;;;;;52.60;33.90;;;4.20;99.90;;;;;;5062944;28;20184;-78
2020/12/07 13:10:08;;;;;;;45.50;30.77;;;4.10;99.90;;;;;;5097857;28;20195;-80
2020/12/07 13:12:33;;;;;;;54.90;35.77;;;4.10;99.90;;;;;;5098643;28;20167;-76
2020/12/07 13:14:59;;;;;;;56.20;33.47;;;3.90;99.90;;;;;;5098449;28;20635;-78
2020/12/07 13:17:29;;;;;;;49.03;32.40;;;4.00;99.90;;;;;;5102266;28;20187;-77
2020/12/07 13:19:59;;;;;;;50.30;31.27;;;3.90;99.90;;;;;;5100714;28;20182;-76
2020/12/07 13:22:37;;;;;;;46.37;31.30;;;3.90;99.90;;;;;;5103739;28;20152;-82
2020/12/07 13:25:07;;;;;;;50.43;31.23;;;3.90;99.90;;;;;;5098087;28;20156;-78
2020/12/07 13:27:47;;;;;;;47.80;31.67;;;4.00;99.90;;;;;;5099597;28;20156;-79
2020/12/07 13:30:16;;;;;;;52.10;32.93;;;4.10;99.90;;;;;;5099332;28;20276;-77
2020/12/07 13:32:42;;;;;;;47.73;30.07;;;4.20;99.90;;;;;;5095832;28;20218;-78
2020/12/07 13:35:08;;;;;;;47.27;30.13;;;4.20;99.90;;;;;;5082184;28;20234;-79
2020/12/07 13:37:33;;;;;;;46.13;29.00;;;4.20;99.90;;;;;;5074518;28;20169;-78
2020/12/07 13:39:59;;;;;;;44.13;29.53;;;4.10;99.90;;;;;;5075195;28;20196;-78
2020/12/07 13:42:24;;;;;;;46.23;31.23;;;4.10;99.90;;;;;;5082768;28;20202;-77
2020/12/07 13:44:51;;;;;;;43.60;29.63;;;4.20;99.90;;;;;;5090321;28;20888;-76
2020/12/07 13:47:17;;;;;;;44.37;30.87;;;4.30;99.90;;;;;;5074937;28;20169;-76
2020/12/07 13:49:42;;;;;;;42.07;28.90;;;4.40;99.90;;;;;;5074605;28;20219;-77
2020/12/07 13:52:15;;;;;;;42.03;28.10;;;4.30;99.90;;;;;;5075877;28;20500;-76
2020/12/07 13:54:41;;;;;;;42.83;28.60;;;4.40;99.90;;;;;;5076040;28;20165;-77
2020/12/07 13:57:07;;;;;;;40.80;28.87;;;4.50;99.90;;;;;;5076385;28;20229;-77
2020/12/07 13:59:33;;;;;;;36.87;27.23;;;4.70;99.90;;;;;;5075229;28;20172;-76
2020/12/07 14:01:58;;;;;;;36.93;26.17;;;4.50;99.90;;;;;;5074415;28;20176;-78
2020/12/07 14:07:02;;;;;;;36.60;25.43;;;4.60;99.90;;;;;;5076020;28;20538;-77
2020/12/07 14:09:28;;;;;;;34.63;25.27;;;4.80;99.90;;;;;;5076875;28;20252;-79
2020/12/07 14:11:54;;;;;;;34.20;24.37;;;4.70;99.90;;;;;;5076766;28;20255;-78
2020/12/07 14:14:20;;;;;;;35.73;25.57;;;4.50;99.90;;;;;;5077234;28;20161;-79
2020/12/07 14:16:48;;;;;;;33.67;24.13;;;4.40;99.90;;;;;;5074883;28;20663;-81
2020/12/07 14:19:19;;;;;;;34.80;24.80;;;4.30;99.90;;;;;;5075094;28;20600;-84
2020/12/07 14:40:37;;;;;;;30.67;21.70;;;4.20;99.90;;;;;;5075425;28;20203;-76
2020/12/07 14:43:03;;;;;;;30.33;20.50;;;4.10;99.90;;;;;;5075366;28;20169;-82
2020/12/07 14:45:34;;;;;;;30.30;22.17;;;4.10;99.90;;;;;;5083765;28;20172;-81
2020/12/07 14:48:04;;;;;;;29.20;21.30;;;4.10;99.90;;;;;;5095183;28;20191;-78
2020/12/07 14:53:02;;;;;;;30.40;21.40;;;4.00;99.90;;;;;;5095005;28;20164;-78
2020/12/07 14:55:34;;;;;;;29.80;21.70;;;4.00;99.90;;;;;;5093329;28;20324;-78
2020/12/07 15:05:54;;;;;;;33.13;22.50;;;4.00;99.90;;;;;;5073017;28;20184;-78
2020/12/07 15:16:14;;;;;;;29.77;20.70;;;4.10;99.90;;;;;;5079213;28;20186;-78
2020/12/07 15:18:39;;;;;;;26.60;19.30;;;4.10;99.90;;;;;;5080162;28;20627;-78
2020/12/07 15:21:06;;;;;;;29.63;19.80;;;4.10;99.90;;;;;;5080140;28;20160;-78
2020/12/07 15:23:33;;;;;;;26.27;18.80;;;4.10;99.90;;;;;;5075430;28;20176;-88
2020/12/07 15:25:59;;;;;;;30.60;18.97;;;4.10;99.90;;;;;;5075130;28;20168;-78
2020/12/07 15:28:25;;;;;;;27.47;17.80;;;4.10;99.90;;;;;;5076229;28;20176;-81
2020/12/07 15:30:51;;;;;;;25.57;17.33;;;4.10;99.90;;;;;;5077521;28;20216;-77
2020/12/07 15:33:17;;;;;;;25.20;16.87;;;4.00;99.90;;;;;;5054719;28;20177;-77
2020/12/07 15:35:43;;;;;;;26.33;17.07;;;4.10;99.90;;;;;;5073085;28;20183;-78
2020/12/07 15:38:08;;;;;;;22.83;16.63;;;3.90;99.90;;;;;;5080305;28;20160;-76
2020/12/07 15:40:34;;;;;;;22.30;15.07;;;3.90;99.90;;;;;;5081051;28;20186;-79
2020/12/07 15:43:00;;;;;;;19.47;13.73;;;3.90;99.90;;;;;;5091561;28;20638;-77
2020/12/07 15:45:28;;;;;;;20.83;14.80;;;3.90;99.90;;;;;;5096567;28;20171;-77
2020/12/07 15:47:53;;;;;;;25.27;15.80;;;3.90;99.90;;;;;;5095803;28;20176;-78
2020/12/07 15:50:19;;;;;;;25.60;15.17;;;4.00;99.90;;;;;;5093377;28;20240;-77
2020/12/07 15:52:46;;;;;;;24.87;16.37;;;4.10;99.90;;;;;;5097690;28;20258;-78
2020/12/07 15:55:12;;;;;;;24.30;16.27;;;4.00;99.90;;;;;;5098181;28;20178;-78
2020/12/07 15:57:38;;;;;;;21.30;15.90;;;4.00;99.90;;;;;;5098025;28;20164;-78
2020/12/07 16:00:06;;;;;;;26.33;17.03;;;3.90;99.90;;;;;;5099800;28;20175;-77
2020/12/07 16:02:32;;;;;;;22.27;15.53;;;3.90;99.90;;;;;;5094538;28;20167;-79
2020/12/07 16:04:57;;;;;;;22.47;14.80;;;4.10;99.90;;;;;;5082339;28;20174;-79
2020/12/07 16:07:23;;;;;;;23.63;15.30;;;4.00;99.90;;;;;;5053922;28;20589;-80
2020/12/07 16:09:48;;;;;;;26.50;16.80;;;4.00;99.90;;;;;;5054568;28;20558;-76
2020/12/07 16:12:14;;;;;;;22.53;16.13;;;4.10;99.90;;;;;;5057222;28;20183;-78
2020/12/07 16:14:40;;;;;;;22.17;14.60;;;4.10;99.90;;;;;;5058180;28;20170;-78
2020/12/07 16:17:05;;;;;;;22.93;15.30;;;4.00;99.90;;;;;;5056660;28;20203;-80
2020/12/07 16:19:31;;;;;;;20.50;14.90;;;4.00;99.90;;;;;;5057909;28;20173;-78
2020/12/07 16:21:57;;;;;;;22.50;14.83;;;4.00;99.90;;;;;;5057464;28;20215;-78
2020/12/07 16:24:23;;;;;;;21.07;15.03;;;4.10;99.90;;;;;;5057163;28;20256;-79
2020/12/07 16:26:52;;;;;;;21.63;14.73;;;4.10;99.90;;;;;;5056971;28;20203;-82
2020/12/07 16:29:30;;;;;;;19.50;15.03;;;4.20;99.90;;;;;;5070635;28;20236;-81
2020/12/07 16:32:07;;;;;;;21.07;14.93;;;4.30;99.90;;;;;;5058320;28;20176;-81
2020/12/07 16:34:33;;;;;;;26.23;16.30;;;4.20;99.90;;;;;;5064116;28;20179;-79
2020/12/07 16:36:58;;;;;;;20.37;15.20;;;4.20;99.90;;;;;;5077666;28;20531;-78
2020/12/07 16:39:24;;;;;;;21.43;15.30;;;4.30;99.90;;;;;;5076169;28;20310;-77
2020/12/07 16:41:51;;;;;;;21.13;14.87;;;4.30;99.90;;;;;;5077742;28;20172;-79
2020/12/07 16:44:17;;;;;;;21.60;15.60;;;4.40;99.90;;;;;;5089361;28;20176;-80
2020/12/07 16:46:43;;;;;;;19.73;14.67;;;4.40;99.90;;;;;;5072290;28;20673;-76
2020/12/07 16:49:09;;;;;;;20.73;15.23;;;4.30;99.90;;;;;;5075534;28;20208;-75
2020/12/07 16:51:35;;;;;;;20.67;14.43;;;4.50;99.90;;;;;;5080002;28;20176;-77
2020/12/07 16:54:00;;;;;;;20.57;14.83;;;4.40;99.90;;;;;;5088538;28;20252;-79
2020/12/07 16:56:26;;;;;;;18.37;13.90;;;4.40;99.90;;;;;;5068390;28;20185;-78
2020/12/07 16:58:53;;;;;;;17.80;12.90;;;4.30;99.90;;;;;;5056843;28;20173;-77
2020/12/07 17:01:24;;;;;;;15.93;11.87;;;4.30;99.90;;;;;;5058073;28;20252;-85
2020/12/07 17:03:50;;;;;;;17.23;11.57;;;4.20;99.90;;;;;;5062214;28;20172;-82
2020/12/07 17:06:25;;;;;;;14.87;11.97;;;4.30;99.90;;;;;;5069607;28;20248;-83
2020/12/07 17:08:50;;;;;;;14.43;11.57;;;4.30;99.90;;;;;;5058964;28;20214;-82
2020/12/07 17:11:17;;;;;;;13.90;10.83;;;4.30;99.90;;;;;;5060218;28;20185;-85
2020/12/07 17:13:43;;;;;;;13.80;10.80;;;4.30;99.90;;;;;;5060861;28;20169;-82
2020/12/07 17:16:09;;;;;;;13.90;11.00;;;4.30;99.90;;;;;;5057256;28;20169;-80
2020/12/07 17:18:34;;;;;;;16.87;11.40;;;4.30;99.90;;;;;;5063112;28;20218;-83
2020/12/07 17:21:00;;;;;;;12.97;10.43;;;4.40;99.90;;;;;;5058352;28;20169;-78
2020/12/07 17:23:26;;;;;;;15.03;9.70;;;4.40;99.90;;;;;;5056311;28;20268;-78
2020/12/07 17:25:52;;;;;;;11.03;9.50;;;4.30;99.90;;;;;;5061535;28;20177;-78
2020/12/07 17:28:18;;;;;;;11.70;9.53;;;4.20;99.90;;;;;;5069063;28;20191;-80
2020/12/07 17:30:43;;;;;;;14.33;10.30;;;4.20;99.90;;;;;;5057879;28;20240;-78
2020/12/07 17:33:09;;;;;;;14.53;12.27;;;4.20;99.90;;;;;;5058421;28;20565;-81
2020/12/07 17:35:35;;;;;;;14.97;12.60;;;4.20;99.90;;;;;;5073404;28;20184;-77
2020/12/07 17:38:00;;;;;;;13.10;11.03;;;4.20;99.90;;;;;;5076995;28;20199;-78
2020/12/07 17:40:26;;;;;;;14.10;11.00;;;4.30;99.90;;;;;;5078596;28;20161;-80
2020/12/07 17:42:52;;;;;;;14.37;10.57;;;4.40;99.90;;;;;;5086275;28;20667;-81
2020/12/07 17:45:18;;;;;;;11.80;10.30;;;4.40;99.90;;;;;;5102621;28;20160;-81
2020/12/07 17:47:47;;;;;;;12.00;10.40;;;4.40;99.90;;;;;;5103899;28;20191;-78
2020/12/07 17:50:13;;;;;;;14.50;12.07;;;4.50;99.90;;;;;;5101405;28;20211;-77
2020/12/07 17:52:43;;;;;;;13.50;11.37;;;4.40;99.90;;;;;;5101142;28;20225;-85
2020/12/07 17:55:09;;;;;;;15.20;11.83;;;4.40;99.90;;;;;;5089037;28;20710;-81
2020/12/07 17:57:35;;;;;;;16.43;12.53;;;4.40;99.90;;;;;;5077571;28;20177;-79
2020/12/07 18:00:01;;;;;;;13.63;12.07;;;4.40;99.90;;;;;;5067390;28;20176;-78
2020/12/07 18:02:27;;;;;;;14.07;12.03;;;4.40;99.90;;;;;;5062560;28;20173;-87
2020/12/07 18:04:53;;;;;;;14.60;13.10;;;4.40;99.90;;;;;;5069838;28;20555;-78
2020/12/07 18:07:18;;;;;;;14.97;11.73;;;4.40;99.90;;;;;;5079282;28;20208;-78
2020/12/07 18:09:45;;;;;;;13.10;11.70;;;4.40;99.90;;;;;;5075253;28;20225;-79
2020/12/07 18:12:11;;;;;;;14.40;12.50;;;4.50;99.90;;;;;;5076182;28;20168;-80
2020/12/07 18:14:36;;;;;;;15.33;12.73;;;4.60;99.90;;;;;;5074967;28;20238;-79
2020/12/07 18:17:02;;;;;;;14.60;12.60;;;4.60;99.90;;;;;;5076817;28;20604;-79
2020/12/07 18:19:28;;;;;;;16.10;12.20;;;4.70;99.90;;;;;;5079336;28;20241;-77
2020/12/07 18:21:54;;;;;;;14.00;12.13;;;4.80;99.90;;;;;;5083200;28;20590;-79
2020/12/07 18:24:21;;;;;;;13.63;11.97;;;4.90;99.90;;;;;;5074550;28;20169;-80
2020/12/07 18:26:47;;;;;;;14.37;11.90;;;4.90;99.90;;;;;;5069588;28;20210;-77
2020/12/07 18:29:13;;;;;;;15.00;12.30;;;4.90;99.90;;;;;;5085150;28;20200;-79
2020/12/07 18:31:39;;;;;;;15.07;12.70;;;4.90;99.90;;;;;;5076269;28;20191;-83
2020/12/07 18:34:05;;;;;;;14.20;12.57;;;4.90;99.90;;;;;;5063538;28;20173;-81
2020/12/07 18:36:31;;;;;;;14.23;12.17;;;5.00;99.90;;;;;;5056225;28;20218;-80
2020/12/07 18:38:57;;;;;;;13.57;11.23;;;5.00;99.90;;;;;;5073510;28;20176;-79
2020/12/07 18:41:25;;;;;;;13.70;11.70;;;5.00;99.90;;;;;;5076530;28;20180;-85
2020/12/07 18:43:52;;;;;;;14.13;11.57;;;5.10;99.90;;;;;;5093803;28;20320;-80
2020/12/07 18:46:22;;;;;;;12.93;11.30;;;5.10;99.90;;;;;;5096296;28;20174;-81
2020/12/07 18:48:51;;;;;;;13.13;10.33;;;5.10;99.90;;;;;;5096242;28;20183;-79
2020/12/07 18:51:18;;;;;;;12.33;10.00;;;5.10;99.90;;;;;;5095532;28;20175;-78
2020/12/07 18:53:45;;;;;;;11.33;9.60;;;5.20;99.90;;;;;;5086389;28;20176;-81
2020/12/07 18:56:11;;;;;;;12.30;10.20;;;5.20;99.90;;;;;;5077514;28;20710;-79
2020/12/07 18:58:38;;;;;;;11.90;10.53;;;5.10;99.90;;;;;;5076002;28;20572;-79
2020/12/07 19:01:05;;;;;;;13.00;10.20;;;5.20;99.90;;;;;;5074572;28;20244;-84
2020/12/07 19:03:31;;;;;;;13.80;9.97;;;5.30;99.90;;;;;;5077330;28;20164;-77
2020/12/07 19:05:58;;;;;;;13.23;10.20;;;5.40;99.90;;;;;;5079367;28;20176;-81
2020/12/07 19:08:23;;;;;;;12.23;9.83;;;5.40;99.90;;;;;;5078365;28;20198;-79
2020/12/07 19:10:50;;;;;;;10.70;9.60;;;5.30;99.90;;;;;;5076739;28;20196;-80
2020/12/07 19:13:15;;;;;;;11.97;9.67;;;5.30;99.90;;;;;;5074675;28;20175;-79
2020/12/07 19:15:41;;;;;;;12.53;9.60;;;5.40;99.90;;;;;;5081867;28;20180;-83
2020/12/07 19:18:08;;;;;;;14.60;9.83;;;5.40;99.90;;;;;;5081877;28;20184;-79
2020/12/07 19:20:33;;;;;;;14.10;10.13;;;5.50;99.90;;;;;;5083066;28;20167;-77
2020/12/07 19:22:59;;;;;;;13.30;9.37;;;5.50;99.90;;;;;;5083236;28;20165;-84
2020/12/07 19:25:25;;;;;;;11.83;9.87;;;5.50;99.90;;;;;;5082256;28;20227;-85
2020/12/07 19:27:53;;;;;;;13.00;10.17;;;5.60;99.90;;;;;;5076515;28;20206;-84
2020/12/07 19:30:20;;;;;;;13.63;10.13;;;5.50;99.90;;;;;;5076873;28;20203;-82
2020/12/07 19:32:46;;;;;;;12.90;9.80;;;5.50;99.90;;;;;;5077211;28;20164;-82
2020/12/07 19:35:12;;;;;;;13.10;9.67;;;5.50;99.90;;;;;;5075915;28;20281;-79
2020/12/07 19:37:39;;;;;;;14.43;11.03;;;5.40;99.90;;;;;;5074116;28;20222;-85
2020/12/07 19:40:06;;;;;;;13.73;10.77;;;5.30;99.90;;;;;;5361928;22;20224;-79
2020/12/07 19:42:32;;;;;;;14.17;10.80;;;5.30;99.90;;;;;;5058096;28;20271;-81
2020/12/07 19:44:58;;;;;;;11.70;9.90;;;5.40;99.90;;;;;;5070578;28;20172;-82
2020/12/07 19:47:23;;;;;;;13.30;10.63;;;5.50;99.90;;;;;;5071888;28;20182;-80
2020/12/07 19:49:49;;;;;;;13.77;11.27;;;5.50;99.90;;;;;;5072270;28;20230;-83
2020/12/07 19:52:15;;;;;;;13.33;10.53;;;5.50;99.90;;;;;;5072941;28;20536;-78
2020/12/07 19:54:41;;;;;;;14.27;11.00;;;5.40;99.90;;;;;;5071899;28;20176;-80
2020/12/07 19:57:07;;;;;;;13.17;10.67;;;5.40;99.90;;;;;;5072708;28;20201;-86
2020/12/07 19:59:34;;;;;;;12.37;10.20;;;5.40;99.90;;;;;;5072570;28;20179;-84
2020/12/07 20:02:00;;;;;;;13.10;11.23;;;5.40;99.90;;;;;;5071341;28;20530;-81
2020/12/07 20:04:26;;;;;;;12.73;10.47;;;5.50;99.90;;;;;;5072281;28;20179;-83
2020/12/07 20:06:51;;;;;;;14.30;10.57;;;5.50;99.90;;;;;;5059804;28;20188;-80
2020/12/07 20:09:17;;;;;;;14.37;11.07;;;5.60;99.90;;;;;;5052464;28;20208;-81
2020/12/07 20:11:43;;;;;;;14.53;10.93;;;5.50;99.90;;;;;;5057407;28;20192;-87
2020/12/07 20:14:09;;;;;;;14.87;11.33;;;5.70;99.90;;;;;;5071998;28;20175;-89
2020/12/07 20:16:35;;;;;;;13.10;11.33;;;5.70;99.90;;;;;;5072832;28;20168;-92
2020/12/07 20:19:01;;;;;;;13.37;10.83;;;5.70;99.90;;;;;;5072064;28;20174;-79
2020/12/07 20:21:27;;;;;;;15.33;11.60;;;5.70;99.90;;;;;;5071642;28;20172;-84
2020/12/07 20:23:53;;;;;;;14.27;11.57;;;5.60;99.90;;;;;;5072167;28;20192;-78
2020/12/07 20:26:21;;;;;;;15.47;11.30;;;5.60;99.90;;;;;;5070851;28;20215;-86
2020/12/07 20:28:47;;;;;;;14.00;11.20;;;5.60;99.90;;;;;;5071359;28;20167;-80
2020/12/07 20:31:17;;;;;;;13.83;11.27;;;5.60;99.90;;;;;;5071723;28;20200;-81
2020/12/07 20:33:42;;;;;;;15.10;11.80;;;5.60;99.90;;;;;;5071693;28;20184;-81
2020/12/07 20:36:13;;;;;;;13.83;11.47;;;5.60;99.90;;;;;;5068583;28;20172;-82
2020/12/07 20:38:40;;;;;;;15.73;12.20;;;5.80;99.90;;;;;;5051718;28;20631;-80
2020/12/07 20:41:06;;;;;;;14.67;12.17;;;5.90;99.90;;;;;;5052244;28;20382;-83
2020/12/07 20:43:33;;;;;;;14.80;11.40;;;5.90;99.90;;;;;;5050560;28;20623;-82
2020/12/07 20:45:58;;;;;;;14.17;12.07;;;5.80;99.90;;;;;;5050826;28;20179;-80
2020/12/07 20:48:24;;;;;;;15.70;11.90;;;5.90;99.90;;;;;;5051958;28;20252;-78
2020/12/07 20:50:50;;;;;;;14.50;11.17;;;5.80;99.90;;;;;;5050456;28;20542;-79
2020/12/07 20:53:16;;;;;;;15.50;12.20;;;6.00;99.90;;;;;;5052043;28;20323;-83
2020/12/07 20:55:41;;;;;;;15.83;12.43;;;6.10;99.90;;;;;;5051650;28;20627;-84
2020/12/07 20:58:07;;;;;;;14.73;11.83;;;6.20;99.90;;;;;;5054629;28;20169;-77
2020/12/07 21:00:33;;;;;;;16.97;13.40;;;6.30;99.90;;;;;;5054818;28;20172;-79
2020/12/07 21:02:59;;;;;;;16.40;12.37;;;6.30;99.90;;;;;;5054749;28;20632;-79
2020/12/07 21:05:25;;;;;;;16.33;12.87;;;6.30;99.90;;;;;;5055003;28;20180;-79
2020/12/07 21:07:50;;;;;;;15.80;12.80;;;6.20;99.90;;;;;;5056586;28;20184;-78
2020/12/07 21:10:16;;;;;;;16.70;13.13;;;6.20;99.90;;;;;;5056189;28;20428;-80
2020/12/07 21:12:42;;;;;;;21.80;17.07;;;6.10;99.90;;;;;;5054717;28;20169;-82
2020/12/07 21:15:08;;;;;;;17.73;15.17;;;6.20;99.90;;;;;;5054706;28;20173;-79
2020/12/07 21:17:34;;;;;;;16.63;13.77;;;6.20;99.90;;;;;;5055372;28;20196;-89
2020/12/07 21:19:59;;;;;;;18.13;13.80;;;6.20;99.90;;;;;;5056376;28;20569;-91
2020/12/07 21:22:25;;;;;;;16.97;13.57;;;6.30;99.90;;;;;;5055143;28;20276;-79
2020/12/07 21:24:51;;;;;;;15.60;13.13;;;6.40;99.90;;;;;;5056528;28;20168;-79
2020/12/07 21:27:17;;;;;;;18.00;14.10;;;6.50;99.90;;;;;;5057657;28;20177;-78
2020/12/07 21:29:43;;;;;;;18.03;13.93;;;6.50;99.90;;;;;;5055995;28;20201;-80